Downing, Wisconsin
Current Conditions -  °F | °C
As of 1:55 PM on Sunday 23 Nov 2014 (Local Time) from KLUM Reporting Station
Haze Haze  
Wind Chill: 50°   Ceiling: 500
Heat Index: 50°   Visibility: 3mi
Dew Point: 49°   Wind: 3mph
Humidity: 97%   Direction: 140°SE
Pressure: 29.39"   Gusts: NA
Location:  45.05°N, 92.13°W
Report Text: KLUM 231955Z AUTO 14003KT 3SM BR OVC005 10/10 A2939 RMK AO2 T01000095
Loading
Personal Weather Stations






























Interactive Weather Map New forecast layout! Learn more

10-Day Weather Forecast

Advertisements
Track Severe Weather on mobile